sensor_id;sensor_type;location;lat;lon;timestamp;P1;durP1;ratioP1;P2;durP2;ratioP2
69979;SDS011;57318;56.232;43.944;2023-05-07T00:02:25;4.50;;;2.30;;
69979;SDS011;57318;56.232;43.944;2023-05-07T00:04:52;6.13;;;2.47;;
69979;SDS011;57318;56.232;43.944;2023-05-07T00:07:17;5.15;;;2.45;;
69979;SDS011;57318;56.232;43.944;2023-05-07T00:09:43;7.20;;;2.38;;
69979;SDS011;57318;56.232;43.944;2023-05-07T00:12:09;7.37;;;2.77;;
69979;SDS011;57318;56.232;43.944;2023-05-07T00:14:35;5.00;;;2.55;;
69979;SDS011;57318;56.232;43.944;2023-05-07T00:17:01;7.30;;;3.20;;
69979;SDS011;57318;56.232;43.944;2023-05-07T00:19:27;5.47;;;2.70;;
69979;SDS011;57318;56.232;43.944;2023-05-07T00:21:53;5.47;;;2.80;;
69979;SDS011;57318;56.232;43.944;2023-05-07T00:24:19;6.57;;;2.60;;
69979;SDS011;57318;56.232;43.944;2023-05-07T00:26:45;4.50;;;2.65;;
69979;SDS011;57318;56.232;43.944;2023-05-07T00:29:11;8.13;;;3.90;;
69979;SDS011;57318;56.232;43.944;2023-05-07T00:31:36;7.40;;;3.20;;
69979;SDS011;57318;56.232;43.944;2023-05-07T00:34:02;6.47;;;2.90;;
69979;SDS011;57318;56.232;43.944;2023-05-07T00:36:28;6.10;;;2.85;;
69979;SDS011;57318;56.232;43.944;2023-05-07T00:38:54;5.70;;;3.20;;
69979;SDS011;57318;56.232;43.944;2023-05-07T00:41:20;3.92;;;2.70;;
69979;SDS011;57318;56.232;43.944;2023-05-07T00:43:46;4.63;;;2.83;;
69979;SDS011;57318;56.232;43.944;2023-05-07T00:46:13;6.70;;;3.35;;
69979;SDS011;57318;56.232;43.944;2023-05-07T00:48:39;4.55;;;2.55;;
69979;SDS011;57318;56.232;43.944;2023-05-07T00:51:05;4.70;;;2.90;;
69979;SDS011;57318;56.232;43.944;2023-05-07T00:53:31;6.63;;;3.00;;
69979;SDS011;57318;56.232;43.944;2023-05-07T00:55:57;4.93;;;3.03;;
69979;SDS011;57318;56.232;43.944;2023-05-07T00:58:22;5.83;;;3.07;;
69979;SDS011;57318;56.232;43.944;2023-05-07T01:00:49;4.45;;;2.70;;
69979;SDS011;57318;56.232;43.944;2023-05-07T01:03:15;4.38;;;2.63;;
69979;SDS011;57318;56.232;43.944;2023-05-07T01:05:41;5.70;;;2.80;;
69979;SDS011;57318;56.232;43.944;2023-05-07T01:08:08;4.30;;;2.42;;
69979;SDS011;57318;56.232;43.944;2023-05-07T01:10:34;5.75;;;2.50;;
69979;SDS011;57318;56.232;43.944;2023-05-07T01:13:00;5.45;;;2.53;;
69979;SDS011;57318;56.232;43.944;2023-05-07T01:15:26;7.95;;;3.35;;
69979;SDS011;57318;56.232;43.944;2023-05-07T01:17:52;4.85;;;2.65;;
69979;SDS011;57318;56.232;43.944;2023-05-07T01:20:18;5.38;;;2.63;;
69979;SDS011;57318;56.232;43.944;2023-05-07T01:22:44;4.22;;;2.70;;
69979;SDS011;57318;56.232;43.944;2023-05-07T01:25:11;5.13;;;2.47;;
69979;SDS011;57318;56.232;43.944;2023-05-07T01:27:37;4.57;;;2.75;;
69979;SDS011;57318;56.232;43.944;2023-05-07T01:30:05;4.00;;;2.55;;
69979;SDS011;57318;56.232;43.944;2023-05-07T01:32:33;6.63;;;2.72;;
69979;SDS011;57318;56.232;43.944;2023-05-07T01:35:07;5.35;;;2.55;;
69979;SDS011;57318;56.232;43.944;2023-05-07T01:37:37;7.18;;;2.60;;
69979;SDS011;57318;56.232;43.944;2023-05-07T01:40:03;6.43;;;3.15;;
69979;SDS011;57318;56.232;43.944;2023-05-07T01:44:56;6.75;;;2.95;;
69979;SDS011;57318;56.232;43.944;2023-05-07T01:47:22;4.63;;;2.80;;
69979;SDS011;57318;56.232;43.944;2023-05-07T01:49:48;3.88;;;2.17;;
69979;SDS011;57318;56.232;43.944;2023-05-07T01:52:14;5.22;;;2.83;;
69979;SDS011;57318;56.232;43.944;2023-05-07T01:54:40;5.75;;;2.60;;
69979;SDS011;57318;56.232;43.944;2023-05-07T01:57:06;4.53;;;2.50;;
69979;SDS011;57318;56.232;43.944;2023-05-07T01:59:32;7.73;;;2.90;;
69979;SDS011;57318;56.232;43.944;2023-05-07T02:01:58;4.17;;;2.37;;
69979;SDS011;57318;56.232;43.944;2023-05-07T02:04:23;6.00;;;2.40;;
69979;SDS011;57318;56.232;43.944;2023-05-07T02:06:49;4.95;;;2.88;;
69979;SDS011;57318;56.232;43.944;2023-05-07T02:09:15;4.63;;;2.63;;
69979;SDS011;57318;56.232;43.944;2023-05-07T02:11:41;5.17;;;2.77;;
69979;SDS011;57318;56.232;43.944;2023-05-07T02:14:07;3.83;;;2.10;;
69979;SDS011;57318;56.232;43.944;2023-05-07T02:16:32;7.27;;;3.10;;
69979;SDS011;57318;56.232;43.944;2023-05-07T02:18:58;5.43;;;2.80;;
69979;SDS011;57318;56.232;43.944;2023-05-07T02:21:24;5.80;;;2.57;;
69979;SDS011;57318;56.232;43.944;2023-05-07T02:23:50;12.02;;;3.78;;
69979;SDS011;57318;56.232;43.944;2023-05-07T02:26:16;6.43;;;2.70;;
69979;SDS011;57318;56.232;43.944;2023-05-07T02:28:42;3.75;;;2.20;;
69979;SDS011;57318;56.232;43.944;2023-05-07T02:31:07;3.07;;;2.10;;
69979;SDS011;57318;56.232;43.944;2023-05-07T02:33:33;4.67;;;2.63;;
69979;SDS011;57318;56.232;43.944;2023-05-07T02:38:35;4.47;;;2.38;;
69979;SDS011;57318;56.232;43.944;2023-05-07T02:41:01;4.63;;;2.50;;
69979;SDS011;57318;56.232;43.944;2023-05-07T02:43:27;3.17;;;2.13;;
69979;SDS011;57318;56.232;43.944;2023-05-07T02:46:02;5.32;;;2.15;;
69979;SDS011;57318;56.232;43.944;2023-05-07T02:48:34;3.63;;;2.28;;
69979;SDS011;57318;56.232;43.944;2023-05-07T02:51:00;4.53;;;2.03;;
69979;SDS011;57318;56.232;43.944;2023-05-07T02:53:26;6.53;;;2.40;;
69979;SDS011;57318;56.232;43.944;2023-05-07T02:55:52;5.35;;;2.63;;
69979;SDS011;57318;56.232;43.944;2023-05-07T02:58:19;4.93;;;2.40;;
69979;SDS011;57318;56.232;43.944;2023-05-07T03:00:45;5.32;;;2.17;;
69979;SDS011;57318;56.232;43.944;2023-05-07T03:03:11;3.30;;;2.17;;
69979;SDS011;57318;56.232;43.944;2023-05-07T03:05:36;5.83;;;2.30;;
69979;SDS011;57318;56.232;43.944;2023-05-07T03:08:02;5.43;;;2.20;;
69979;SDS011;57318;56.232;43.944;2023-05-07T03:10:29;4.47;;;2.60;;
69979;SDS011;57318;56.232;43.944;2023-05-07T03:12:55;6.22;;;2.55;;
69979;SDS011;57318;56.232;43.944;2023-05-07T03:15:21;4.63;;;2.60;;
69979;SDS011;57318;56.232;43.944;2023-05-07T03:17:47;5.57;;;2.77;;
69979;SDS011;57318;56.232;43.944;2023-05-07T03:20:13;7.63;;;2.83;;
69979;SDS011;57318;56.232;43.944;2023-05-07T03:22:39;5.53;;;2.37;;
69979;SDS011;57318;56.232;43.944;2023-05-07T03:25:05;3.57;;;2.17;;
69979;SDS011;57318;56.232;43.944;2023-05-07T03:27:35;6.15;;;2.85;;
69979;SDS011;57318;56.232;43.944;2023-05-07T03:30:01;8.00;;;2.70;;
69979;SDS011;57318;56.232;43.944;2023-05-07T03:32:30;5.75;;;2.35;;
69979;SDS011;57318;56.232;43.944;2023-05-07T03:34:56;4.33;;;2.30;;
69979;SDS011;57318;56.232;43.944;2023-05-07T03:37:21;4.50;;;2.57;;
69979;SDS011;57318;56.232;43.944;2023-05-07T03:39:47;4.07;;;2.43;;
69979;SDS011;57318;56.232;43.944;2023-05-07T03:42:13;5.60;;;2.30;;
69979;SDS011;57318;56.232;43.944;2023-05-07T03:44:38;3.80;;;1.80;;
69979;SDS011;57318;56.232;43.944;2023-05-07T03:47:05;5.10;;;2.42;;
69979;SDS011;57318;56.232;43.944;2023-05-07T03:49:30;3.67;;;1.93;;
69979;SDS011;57318;56.232;43.944;2023-05-07T03:51:56;4.13;;;2.60;;
69979;SDS011;57318;56.232;43.944;2023-05-07T03:54:22;4.57;;;2.47;;
69979;SDS011;57318;56.232;43.944;2023-05-07T03:56:47;3.63;;;2.00;;
69979;SDS011;57318;56.232;43.944;2023-05-07T03:59:13;5.60;;;2.40;;
69979;SDS011;57318;56.232;43.944;2023-05-07T04:04:06;7.90;;;2.50;;
69979;SDS011;57318;56.232;43.944;2023-05-07T04:06:32;4.67;;;2.37;;
69979;SDS011;57318;56.232;43.944;2023-05-07T04:08:57;6.60;;;2.40;;
69979;SDS011;57318;56.232;43.944;2023-05-07T04:11:23;6.00;;;2.40;;
69979;SDS011;57318;56.232;43.944;2023-05-07T04:13:49;6.23;;;2.47;;
69979;SDS011;57318;56.232;43.944;2023-05-07T04:16:14;7.63;;;2.07;;
69979;SDS011;57318;56.232;43.944;2023-05-07T04:18:40;3.13;;;2.03;;
69979;SDS011;57318;56.232;43.944;2023-05-07T04:21:13;9.23;;;2.43;;
69979;SDS011;57318;56.232;43.944;2023-05-07T04:23:42;5.43;;;2.65;;
69979;SDS011;57318;56.232;43.944;2023-05-07T04:26:08;5.10;;;2.43;;
69979;SDS011;57318;56.232;43.944;2023-05-07T04:28:34;4.43;;;2.20;;
69979;SDS011;57318;56.232;43.944;2023-05-07T04:31:00;5.30;;;2.33;;
69979;SDS011;57318;56.232;43.944;2023-05-07T04:33:26;5.73;;;2.80;;
69979;SDS011;57318;56.232;43.944;2023-05-07T04:35:52;4.30;;;2.60;;
69979;SDS011;57318;56.232;43.944;2023-05-07T04:38:17;7.90;;;2.20;;
69979;SDS011;57318;56.232;43.944;2023-05-07T04:40:44;3.40;;;2.07;;
69979;SDS011;57318;56.232;43.944;2023-05-07T04:43:10;4.85;;;2.20;;
69979;SDS011;57318;56.232;43.944;2023-05-07T04:45:36;2.90;;;1.73;;
69979;SDS011;57318;56.232;43.944;2023-05-07T04:48:02;2.83;;;1.90;;
69979;SDS011;57318;56.232;43.944;2023-05-07T04:50:28;6.20;;;2.33;;
69979;SDS011;57318;56.232;43.944;2023-05-07T04:52:53;3.57;;;2.40;;
69979;SDS011;57318;56.232;43.944;2023-05-07T04:55:19;5.50;;;2.87;;
69979;SDS011;57318;56.232;43.944;2023-05-07T04:57:46;3.38;;;2.10;;
69979;SDS011;57318;56.232;43.944;2023-05-07T05:00:12;3.17;;;1.98;;
69979;SDS011;57318;56.232;43.944;2023-05-07T05:02:40;4.35;;;2.13;;
69979;SDS011;57318;56.232;43.944;2023-05-07T05:05:06;3.13;;;1.90;;
69979;SDS011;57318;56.232;43.944;2023-05-07T05:07:32;4.60;;;2.30;;
69979;SDS011;57318;56.232;43.944;2023-05-07T05:09:58;3.05;;;2.08;;
69979;SDS011;57318;56.232;43.944;2023-05-07T05:12:24;6.63;;;1.98;;
69979;SDS011;57318;56.232;43.944;2023-05-07T05:14:50;3.40;;;2.13;;
69979;SDS011;57318;56.232;43.944;2023-05-07T05:17:16;3.63;;;2.20;;
69979;SDS011;57318;56.232;43.944;2023-05-07T05:19:42;3.60;;;1.77;;
69979;SDS011;57318;56.232;43.944;2023-05-07T05:22:08;3.63;;;2.20;;
69979;SDS011;57318;56.232;43.944;2023-05-07T05:24:33;4.73;;;2.20;;
69979;SDS011;57318;56.232;43.944;2023-05-07T05:26:59;4.10;;;2.07;;
69979;SDS011;57318;56.232;43.944;2023-05-07T05:29:26;6.80;;;2.83;;
69979;SDS011;57318;56.232;43.944;2023-05-07T05:31:52;6.73;;;2.30;;
69979;SDS011;57318;56.232;43.944;2023-05-07T05:34:17;3.17;;;1.90;;
69979;SDS011;57318;56.232;43.944;2023-05-07T05:36:45;6.93;;;2.00;;
69979;SDS011;57318;56.232;43.944;2023-05-07T05:39:11;3.13;;;1.88;;
69979;SDS011;57318;56.232;43.944;2023-05-07T05:41:36;3.03;;;1.57;;
69979;SDS011;57318;56.232;43.944;2023-05-07T05:44:02;3.97;;;1.90;;
69979;SDS011;57318;56.232;43.944;2023-05-07T05:46:28;4.37;;;1.73;;
69979;SDS011;57318;56.232;43.944;2023-05-07T05:48:55;5.30;;;2.00;;
69979;SDS011;57318;56.232;43.944;2023-05-07T05:51:21;2.60;;;1.63;;
69979;SDS011;57318;56.232;43.944;2023-05-07T05:53:47;8.27;;;2.10;;
69979;SDS011;57318;56.232;43.944;2023-05-07T05:56:12;2.43;;;1.77;;
69979;SDS011;57318;56.232;43.944;2023-05-07T05:58:38;2.67;;;1.77;;
69979;SDS011;57318;56.232;43.944;2023-05-07T06:01:04;1.50;;;1.33;;
69979;SDS011;57318;56.232;43.944;2023-05-07T06:03:30;5.18;;;1.90;;
69979;SDS011;57318;56.232;43.944;2023-05-07T06:05:57;2.03;;;1.67;;
69979;SDS011;57318;56.232;43.944;2023-05-07T06:08:23;2.67;;;1.50;;
69979;SDS011;57318;56.232;43.944;2023-05-07T06:10:49;4.80;;;1.50;;
69979;SDS011;57318;56.232;43.944;2023-05-07T06:13:15;3.37;;;1.90;;
69979;SDS011;57318;56.232;43.944;2023-05-07T06:15:41;3.37;;;1.60;;
69979;SDS011;57318;56.232;43.944;2023-05-07T06:18:06;3.70;;;1.70;;
69979;SDS011;57318;56.232;43.944;2023-05-07T06:20:32;3.30;;;1.40;;
69979;SDS011;57318;56.232;43.944;2023-05-07T06:22:58;2.37;;;1.50;;
69979;SDS011;57318;56.232;43.944;2023-05-07T06:25:23;3.10;;;1.50;;
69979;SDS011;57318;56.232;43.944;2023-05-07T06:27:49;3.00;;;1.80;;
69979;SDS011;57318;56.232;43.944;2023-05-07T06:30:15;4.07;;;1.50;;
69979;SDS011;57318;56.232;43.944;2023-05-07T06:32:41;3.33;;;1.50;;
69979;SDS011;57318;56.232;43.944;2023-05-07T06:35:07;2.57;;;1.40;;
69979;SDS011;57318;56.232;43.944;2023-05-07T06:37:33;2.38;;;1.50;;
69979;SDS011;57318;56.232;43.944;2023-05-07T06:39:58;2.37;;;1.37;;
69979;SDS011;57318;56.232;43.944;2023-05-07T06:42:24;5.13;;;1.43;;
69979;SDS011;57318;56.232;43.944;2023-05-07T06:44:50;1.73;;;1.30;;
69979;SDS011;57318;56.232;43.944;2023-05-07T06:47:16;3.17;;;1.70;;
69979;SDS011;57318;56.232;43.944;2023-05-07T06:49:41;3.20;;;1.40;;
69979;SDS011;57318;56.232;43.944;2023-05-07T06:52:07;1.43;;;1.20;;
69979;SDS011;57318;56.232;43.944;2023-05-07T06:54:33;2.00;;;1.50;;
69979;SDS011;57318;56.232;43.944;2023-05-07T06:56:58;2.60;;;1.40;;
69979;SDS011;57318;56.232;43.944;2023-05-07T06:59:24;1.60;;;1.20;;
69979;SDS011;57318;56.232;43.944;2023-05-07T07:01:50;2.57;;;1.53;;
69979;SDS011;57318;56.232;43.944;2023-05-07T07:04:16;1.90;;;1.50;;
69979;SDS011;57318;56.232;43.944;2023-05-07T07:06:42;3.93;;;1.80;;
69979;SDS011;57318;56.232;43.944;2023-05-07T07:09:07;1.43;;;1.33;;
69979;SDS011;57318;56.232;43.944;2023-05-07T07:11:33;1.37;;;1.27;;
69979;SDS011;57318;56.232;43.944;2023-05-07T07:13:59;1.23;;;1.00;;
69979;SDS011;57318;56.232;43.944;2023-05-07T07:16:25;1.43;;;1.13;;
69979;SDS011;57318;56.232;43.944;2023-05-07T07:18:50;2.30;;;1.30;;
69979;SDS011;57318;56.232;43.944;2023-05-07T07:21:16;1.53;;;1.30;;
69979;SDS011;57318;56.232;43.944;2023-05-07T07:23:42;2.33;;;1.20;;
69979;SDS011;57318;56.232;43.944;2023-05-07T07:26:07;1.67;;;1.10;;
69979;SDS011;57318;56.232;43.944;2023-05-07T07:28:33;2.42;;;1.10;;
69979;SDS011;57318;56.232;43.944;2023-05-07T07:30:59;1.17;;;1.13;;
69979;SDS011;57318;56.232;43.944;2023-05-07T07:33:25;3.97;;;1.50;;
69979;SDS011;57318;56.232;43.944;2023-05-07T07:35:51;1.47;;;1.13;;
69979;SDS011;57318;56.232;43.944;2023-05-07T07:38:16;1.77;;;1.20;;
69979;SDS011;57318;56.232;43.944;2023-05-07T07:40:42;1.93;;;1.00;;
69979;SDS011;57318;56.232;43.944;2023-05-07T07:43:09;2.50;;;1.60;;
69979;SDS011;57318;56.232;43.944;2023-05-07T07:45:34;1.20;;;1.00;;
69979;SDS011;57318;56.232;43.944;2023-05-07T07:48:00;1.33;;;1.10;;
69979;SDS011;57318;56.232;43.944;2023-05-07T07:50:26;3.47;;;1.10;;
69979;SDS011;57318;56.232;43.944;2023-05-07T07:52:52;3.40;;;1.27;;
69979;SDS011;57318;56.232;43.944;2023-05-07T07:55:19;2.13;;;1.10;;
69979;SDS011;57318;56.232;43.944;2023-05-07T07:57:48;4.22;;;1.50;;
69979;SDS011;57318;56.232;43.944;2023-05-07T08:02:40;2.97;;;1.30;;
69979;SDS011;57318;56.232;43.944;2023-05-07T08:05:06;3.90;;;1.63;;
69979;SDS011;57318;56.232;43.944;2023-05-07T08:07:32;1.17;;;1.08;;
69979;SDS011;57318;56.232;43.944;2023-05-07T08:09:58;1.33;;;1.20;;
69979;SDS011;57318;56.232;43.944;2023-05-07T08:12:23;1.40;;;1.23;;
69979;SDS011;57318;56.232;43.944;2023-05-07T08:14:49;1.03;;;1.00;;
69979;SDS011;57318;56.232;43.944;2023-05-07T08:17:15;4.43;;;1.20;;
69979;SDS011;57318;56.232;43.944;2023-05-07T08:19:42;2.28;;;1.15;;
69979;SDS011;57318;56.232;43.944;2023-05-07T08:22:09;2.35;;;1.70;;
69979;SDS011;57318;56.232;43.944;2023-05-07T08:24:35;5.25;;;3.47;;
69979;SDS011;57318;56.232;43.944;2023-05-07T08:27:01;3.95;;;2.10;;
69979;SDS011;57318;56.232;43.944;2023-05-07T08:29:27;4.27;;;2.00;;
69979;SDS011;57318;56.232;43.944;2023-05-07T08:31:54;1.40;;;1.30;;
69979;SDS011;57318;56.232;43.944;2023-05-07T08:34:20;3.85;;;1.40;;
69979;SDS011;57318;56.232;43.944;2023-05-07T08:36:47;2.38;;;1.45;;
69979;SDS011;57318;56.232;43.944;2023-05-07T08:39:14;4.38;;;2.05;;
69979;SDS011;57318;56.232;43.944;2023-05-07T08:41:44;2.80;;;2.00;;
69979;SDS011;57318;56.232;43.944;2023-05-07T08:44:14;2.15;;;1.60;;
69979;SDS011;57318;56.232;43.944;2023-05-07T08:46:43;4.55;;;1.55;;
69979;SDS011;57318;56.232;43.944;2023-05-07T08:49:12;1.38;;;1.27;;
69979;SDS011;57318;56.232;43.944;2023-05-07T08:51:38;3.20;;;1.60;;
69979;SDS011;57318;56.232;43.944;2023-05-07T08:54:03;1.87;;;1.63;;
69979;SDS011;57318;56.232;43.944;2023-05-07T08:56:30;2.20;;;1.55;;
69979;SDS011;57318;56.232;43.944;2023-05-07T08:58:56;1.40;;;1.30;;
69979;SDS011;57318;56.232;43.944;2023-05-07T09:01:23;3.40;;;1.20;;
69979;SDS011;57318;56.232;43.944;2023-05-07T09:03:50;6.65;;;1.48;;
69979;SDS011;57318;56.232;43.944;2023-05-07T09:06:16;5.80;;;1.48;;
69979;SDS011;57318;56.232;43.944;2023-05-07T09:08:48;1.60;;;1.27;;
69979;SDS011;57318;56.232;43.944;2023-05-07T09:11:16;1.27;;;1.15;;
69979;SDS011;57318;56.232;43.944;2023-05-07T09:13:44;3.00;;;1.50;;
69979;SDS011;57318;56.232;43.944;2023-05-07T09:16:13;1.47;;;1.20;;
69979;SDS011;57318;56.232;43.944;2023-05-07T09:18:42;2.05;;;1.23;;
69979;SDS011;57318;56.232;43.944;2023-05-07T09:21:15;1.40;;;1.30;;
69979;SDS011;57318;56.232;43.944;2023-05-07T09:23:41;1.52;;;1.20;;
69979;SDS011;57318;56.232;43.944;2023-05-07T09:26:07;3.08;;;1.23;;
69979;SDS011;57318;56.232;43.944;2023-05-07T09:28:40;1.10;;;1.10;;
69979;SDS011;57318;56.232;43.944;2023-05-07T09:31:07;1.38;;;1.27;;
69979;SDS011;57318;56.232;43.944;2023-05-07T09:33:34;1.65;;;1.50;;
69979;SDS011;57318;56.232;43.944;2023-05-07T09:36:06;5.60;;;1.40;;
69979;SDS011;57318;56.232;43.944;2023-05-07T09:38:34;1.90;;;1.50;;
69979;SDS011;57318;56.232;43.944;2023-05-07T09:43:39;2.88;;;1.23;;
69979;SDS011;57318;56.232;43.944;2023-05-07T09:46:12;1.40;;;1.30;;
69979;SDS011;57318;56.232;43.944;2023-05-07T09:48:41;2.33;;;1.25;;
69979;SDS011;57318;56.232;43.944;2023-05-07T09:51:15;4.97;;;1.80;;
69979;SDS011;57318;56.232;43.944;2023-05-07T09:53:47;2.90;;;1.85;;
69979;SDS011;57318;56.232;43.944;2023-05-07T09:56:14;2.95;;;1.58;;
69979;SDS011;57318;56.232;43.944;2023-05-07T09:58:43;3.42;;;1.67;;
69979;SDS011;57318;56.232;43.944;2023-05-07T10:01:10;1.63;;;1.35;;
69979;SDS011;57318;56.232;43.944;2023-05-07T10:03:37;2.22;;;1.70;;
69979;SDS011;57318;56.232;43.944;2023-05-07T10:06:07;2.58;;;1.70;;
69979;SDS011;57318;56.232;43.944;2023-05-07T10:08:34;3.15;;;2.00;;
69979;SDS011;57318;56.232;43.944;2023-05-07T10:11:01;3.33;;;1.60;;
69979;SDS011;57318;56.232;43.944;2023-05-07T10:13:28;2.40;;;1.67;;
69979;SDS011;57318;56.232;43.944;2023-05-07T10:15:54;1.95;;;1.40;;
69979;SDS011;57318;56.232;43.944;2023-05-07T10:18:21;4.25;;;1.40;;
69979;SDS011;57318;56.232;43.944;2023-05-07T10:20:48;2.33;;;1.70;;
69979;SDS011;57318;56.232;43.944;2023-05-07T10:23:19;4.07;;;2.08;;
69979;SDS011;57318;56.232;43.944;2023-05-07T10:25:49;2.55;;;1.50;;
69979;SDS011;57318;56.232;43.944;2023-05-07T10:28:15;4.65;;;1.90;;
69979;SDS011;57318;56.232;43.944;2023-05-07T10:30:48;3.08;;;1.73;;
69979;SDS011;57318;56.232;43.944;2023-05-07T10:33:24;4.13;;;1.70;;
69979;SDS011;57318;56.232;43.944;2023-05-07T10:35:52;2.30;;;1.90;;
69979;SDS011;57318;56.232;43.944;2023-05-07T10:38:23;3.15;;;1.70;;
69979;SDS011;57318;56.232;43.944;2023-05-07T10:40:50;4.07;;;1.63;;
69979;SDS011;57318;56.232;43.944;2023-05-07T10:43:16;5.93;;;2.55;;
69979;SDS011;57318;56.232;43.944;2023-05-07T10:45:42;3.07;;;1.87;;
69979;SDS011;57318;56.232;43.944;2023-05-07T10:48:12;2.77;;;2.23;;
69979;SDS011;57318;56.232;43.944;2023-05-07T10:50:42;2.13;;;1.92;;
69979;SDS011;57318;56.232;43.944;2023-05-07T10:55:44;4.38;;;1.90;;
69979;SDS011;57318;56.232;43.944;2023-05-07T10:58:33;2.17;;;1.90;;
69979;SDS011;57318;56.232;43.944;2023-05-07T11:03:26;3.03;;;1.98;;
69979;SDS011;57318;56.232;43.944;2023-05-07T11:06:12;4.43;;;2.10;;
69979;SDS011;57318;56.232;43.944;2023-05-07T11:11:17;4.32;;;2.10;;
69979;SDS011;57318;56.232;43.944;2023-05-07T11:13:47;3.25;;;1.80;;
69979;SDS011;57318;56.232;43.944;2023-05-07T11:18:51;3.65;;;2.10;;
69979;SDS011;57318;56.232;43.944;2023-05-07T11:21:38;6.50;;;1.90;;
69979;SDS011;57318;56.232;43.944;2023-05-07T11:24:06;5.68;;;2.50;;
69979;SDS011;57318;56.232;43.944;2023-05-07T11:26:42;3.15;;;1.95;;
69979;SDS011;57318;56.232;43.944;2023-05-07T11:29:15;5.75;;;2.00;;
69979;SDS011;57318;56.232;43.944;2023-05-07T11:31:43;2.85;;;1.88;;
69979;SDS011;57318;56.232;43.944;2023-05-07T11:34:09;3.55;;;1.90;;
69979;SDS011;57318;56.232;43.944;2023-05-07T11:36:37;2.58;;;1.85;;
69979;SDS011;57318;56.232;43.944;2023-05-07T11:39:24;3.78;;;1.90;;
69979;SDS011;57318;56.232;43.944;2023-05-07T11:41:50;4.97;;;2.08;;
69979;SDS011;57318;56.232;43.944;2023-05-07T11:44:16;2.17;;;1.90;;
69979;SDS011;57318;56.232;43.944;2023-05-07T11:46:44;4.70;;;1.80;;
69979;SDS011;57318;56.232;43.944;2023-05-07T11:49:10;6.72;;;2.17;;
69979;SDS011;57318;56.232;43.944;2023-05-07T11:51:36;2.78;;;2.15;;
69979;SDS011;57318;56.232;43.944;2023-05-07T11:54:04;3.35;;;2.00;;
69979;SDS011;57318;56.232;43.944;2023-05-07T11:56:34;5.10;;;2.83;;
69979;SDS011;57318;56.232;43.944;2023-05-07T11:59:00;4.00;;;2.00;;
69979;SDS011;57318;56.232;43.944;2023-05-07T12:01:26;4.30;;;2.10;;
69979;SDS011;57318;56.232;43.944;2023-05-07T12:03:52;3.27;;;2.00;;
69979;SDS011;57318;56.232;43.944;2023-05-07T12:06:18;3.97;;;2.67;;
69979;SDS011;57318;56.232;43.944;2023-05-07T12:08:44;5.93;;;2.65;;
69979;SDS011;57318;56.232;43.944;2023-05-07T12:11:24;3.53;;;1.95;;
69979;SDS011;57318;56.232;43.944;2023-05-07T12:13:51;4.05;;;2.13;;
69979;SDS011;57318;56.232;43.944;2023-05-07T12:16:17;4.78;;;1.90;;
69979;SDS011;57318;56.232;43.944;2023-05-07T12:18:43;5.53;;;2.05;;
69979;SDS011;57318;56.232;43.944;2023-05-07T12:21:10;3.38;;;1.63;;
69979;SDS011;57318;56.232;43.944;2023-05-07T12:23:36;3.55;;;2.08;;
69979;SDS011;57318;56.232;43.944;2023-05-07T12:26:02;4.03;;;2.08;;
69979;SDS011;57318;56.232;43.944;2023-05-07T12:28:28;7.95;;;2.05;;
69979;SDS011;57318;56.232;43.944;2023-05-07T12:30:55;3.85;;;2.25;;
69979;SDS011;57318;56.232;43.944;2023-05-07T12:33:26;2.78;;;1.98;;
69979;SDS011;57318;56.232;43.944;2023-05-07T12:35:53;4.57;;;2.20;;
69979;SDS011;57318;56.232;43.944;2023-05-07T12:38:20;3.60;;;2.00;;
69979;SDS011;57318;56.232;43.944;2023-05-07T12:40:47;3.50;;;2.30;;
69979;SDS011;57318;56.232;43.944;2023-05-07T12:45:55;5.30;;;2.80;;
69979;SDS011;57318;56.232;43.944;2023-05-07T12:48:31;3.50;;;2.30;;
69979;SDS011;57318;56.232;43.944;2023-05-07T12:50:58;2.92;;;2.20;;
69979;SDS011;57318;56.232;43.944;2023-05-07T12:53:25;2.38;;;2.03;;
69979;SDS011;57318;56.232;43.944;2023-05-07T13:00:50;2.75;;;2.10;;
69979;SDS011;57318;56.232;43.944;2023-05-07T13:05:50;3.60;;;1.98;;
69979;SDS011;57318;56.232;43.944;2023-05-07T13:08:30;2.20;;;1.98;;
69979;SDS011;57318;56.232;43.944;2023-05-07T13:11:00;2.90;;;1.77;;
69979;SDS011;57318;56.232;43.944;2023-05-07T13:13:30;5.85;;;2.05;;
69979;SDS011;57318;56.232;43.944;2023-05-07T13:15:56;2.70;;;1.80;;
69979;SDS011;57318;56.232;43.944;2023-05-07T13:18:23;2.10;;;1.73;;
69979;SDS011;57318;56.232;43.944;2023-05-07T13:20:50;2.38;;;1.95;;
69979;SDS011;57318;56.232;43.944;2023-05-07T13:23:17;4.23;;;1.60;;
69979;SDS011;57318;56.232;43.944;2023-05-07T13:25:43;3.17;;;1.60;;
69979;SDS011;57318;56.232;43.944;2023-05-07T13:28:08;3.03;;;1.97;;
69979;SDS011;57318;56.232;43.944;2023-05-07T13:30:34;2.53;;;1.57;;
69979;SDS011;57318;56.232;43.944;2023-05-07T13:33:00;4.43;;;2.00;;
69979;SDS011;57318;56.232;43.944;2023-05-07T13:35:26;4.37;;;1.90;;
69979;SDS011;57318;56.232;43.944;2023-05-07T13:37:51;2.47;;;2.10;;
69979;SDS011;57318;56.232;43.944;2023-05-07T13:40:18;3.97;;;2.20;;
69979;SDS011;57318;56.232;43.944;2023-05-07T13:42:47;4.22;;;1.60;;
69979;SDS011;57318;56.232;43.944;2023-05-07T13:45:13;3.55;;;1.60;;
69979;SDS011;57318;56.232;43.944;2023-05-07T13:47:40;4.22;;;2.10;;
69979;SDS011;57318;56.232;43.944;2023-05-07T13:50:07;1.75;;;1.60;;
69979;SDS011;57318;56.232;43.944;2023-05-07T13:52:34;4.63;;;2.10;;
69979;SDS011;57318;56.232;43.944;2023-05-07T13:55:00;4.55;;;1.98;;
69979;SDS011;57318;56.232;43.944;2023-05-07T13:57:25;2.23;;;2.03;;
69979;SDS011;57318;56.232;43.944;2023-05-07T13:59:51;2.97;;;1.90;;
69979;SDS011;57318;56.232;43.944;2023-05-07T14:02:17;3.90;;;1.90;;
69979;SDS011;57318;56.232;43.944;2023-05-07T14:04:42;3.20;;;1.80;;
69979;SDS011;57318;56.232;43.944;2023-05-07T14:07:08;2.97;;;1.53;;
69979;SDS011;57318;56.232;43.944;2023-05-07T14:09:34;1.97;;;1.70;;
69979;SDS011;57318;56.232;43.944;2023-05-07T14:11:59;4.00;;;2.10;;
69979;SDS011;57318;56.232;43.944;2023-05-07T14:16:52;2.00;;;1.60;;
69979;SDS011;57318;56.232;43.944;2023-05-07T14:19:18;4.57;;;1.80;;
69979;SDS011;57318;56.232;43.944;2023-05-07T14:21:43;2.30;;;1.67;;
69979;SDS011;57318;56.232;43.944;2023-05-07T14:24:09;4.13;;;1.90;;
69979;SDS011;57318;56.232;43.944;2023-05-07T14:26:35;2.90;;;1.80;;
69979;SDS011;57318;56.232;43.944;2023-05-07T14:29:01;3.37;;;1.87;;
69979;SDS011;57318;56.232;43.944;2023-05-07T14:31:27;4.88;;;2.58;;
69979;SDS011;57318;56.232;43.944;2023-05-07T14:33:53;1.88;;;1.60;;
69979;SDS011;57318;56.232;43.944;2023-05-07T14:36:19;3.28;;;1.90;;
69979;SDS011;57318;56.232;43.944;2023-05-07T14:38:46;2.90;;;1.80;;
69979;SDS011;57318;56.232;43.944;2023-05-07T14:41:13;4.68;;;1.70;;
69979;SDS011;57318;56.232;43.944;2023-05-07T14:43:40;4.20;;;1.92;;
69979;SDS011;57318;56.232;43.944;2023-05-07T14:46:06;3.95;;;1.40;;
69979;SDS011;57318;56.232;43.944;2023-05-07T14:48:31;1.87;;;1.57;;
69979;SDS011;57318;56.232;43.944;2023-05-07T14:50:57;1.93;;;1.50;;
69979;SDS011;57318;56.232;43.944;2023-05-07T14:53:23;2.07;;;1.80;;
69979;SDS011;57318;56.232;43.944;2023-05-07T14:55:49;2.60;;;1.90;;
69979;SDS011;57318;56.232;43.944;2023-05-07T14:58:14;3.33;;;1.90;;
69979;SDS011;57318;56.232;43.944;2023-05-07T15:00:40;2.90;;;1.80;;
69979;SDS011;57318;56.232;43.944;2023-05-07T15:03:07;3.23;;;1.60;;
69979;SDS011;57318;56.232;43.944;2023-05-07T15:05:34;4.85;;;1.52;;
69979;SDS011;57318;56.232;43.944;2023-05-07T15:08:01;2.67;;;2.00;;